Aviation Digital Data Service (ADDS)

Output produced by METARs form (0307 UTC 16 August 2018)
found at http://www.aviationweather.gov/adds/metars/
 
GABS 160230Z 25002KT 9999 FEW020 23/22 Q1016 NOSIG
TAF GABS 152300Z 1600/1700 20010KT 9999 SCT020 
     PROB40 
     TEMPO 1605/1608 3000 BR 
     PROB40 
     TEMPO 1615/1622 08015G35KT 3000 TSRA SCT020 FEW026CB
       
TAF GAGO 152330Z 1600/1624 22008KT 8000 FEW026 
     TEMPO 1614/1622 09015G35KT 1200 BLDU TSRA SCT026 SCT033CB
       
GABS 160230Z 25002KT 9999 FEW020 23/22 Q1016 NOSIG
TAF GABS 152300Z 1600/1700 20010KT 9999 SCT020 
     PROB40 
     TEMPO 1605/1608 3000 BR 
     PROB40 
     TEMPO 1615/1622 08015G35KT 3000 TSRA SCT020 FEW026CB
       
TAF GAGO 152330Z 1600/1624 22008KT 8000 FEW026 
     TEMPO 1614/1622 09015G35KT 1200 BLDU TSRA SCT026 SCT033CB
       
GAMB 160000Z 22006KT CAVOK 26/24 Q1014
GANR 160000Z 24002KT CAVOK 28/24 Q1016
GAMB 160000Z 22006KT CAVOK 26/24 Q1014
GANR 160000Z 24002KT CAVOK 28/24 Q1016